Current River (Missouri), Akers (07064533)

StateMissouriCurrentGood (307 cfs)
RiverCurrent RiverFlood - The river is flooding. Obstacles can be treacherous or deadly. The river should be avoided at this stage for casual trips and definitely for the inexperienced. Trips should be attempted only with protective gear and equipment.Flood(none)
Updated2019-10-13 18:30 (1 hour ago)High - The river is high and potentially dangerous, especially for the young and / or inexperienced. Normal stream obstacles are sometimes difficult to navigate. Extended distances can be attempted, but canoe travel may not be advisable.High(none)
Discharge307 cfs (median: 223 cfs)Good - Conditions are ideal for a canoe or kayak. Boats typically will drag on fewer than one-quarter of riffles, if at all, and portages are unnecessary or rare. Normal float lengths can be attempted without a problem.Good150
Height1.11 feetLow - River is low but can still be floated. Some riffles are okay but most come with significant dragging and might need a portage. Float lengths should be reduced to accommodate low flow, dragging, and portages.Low(none)
TrendFalling (falling over 24 hours)Poor - River is too low to float comfortably. Most or all riffles will drag or must be portaged and some obstacles (such as slick shelf rock) cause undue problems. Avoid the river at this stage for casual paddling trips.Poor(none)
USGSExternal icon USGS Site for Akers (07064533)LocationExternal icon Google Maps

Trending Data

Plot Image
ObservationHeightDischargeMaximum
Discharge
Minimum
Discharge
Mean
Discharge
P05P10P20P25P50
(Median)
P75P80P90P95
2019-10-13 18:30 1.11 307 527 (2010) 135 (2006) 221 141 152 157 223 247 254 322
2019-10-13 17:30 1.12 312 527 (2010) 135 (2006) 221 141 152 157 223 247 254 322
2019-10-13 16:30 1.12 312 527 (2010) 135 (2006) 221 141 152 157 223 247 254 322
2019-10-13 15:30 1.12 312 527 (2010) 135 (2006) 221 141 152 157 223 247 254 322
2019-10-13 14:30 1.12 312 527 (2010) 135 (2006) 221 141 152 157 223 247 254 322
2019-10-13 13:30 1.12 312 527 (2010) 135 (2006) 221 141 152 157 223 247 254 322
2019-10-13 12:30 1.12 312 527 (2010) 135 (2006) 221 141 152 157 223 247 254 322
2019-10-13 11:30 1.12 312 527 (2010) 135 (2006) 221 141 152 157 223 247 254 322
2019-10-13 10:30 1.12 312 527 (2010) 135 (2006) 221 141 152 157 223 247 254 322
2019-10-13 09:30 1.12 312 527 (2010) 135 (2006) 221 141 152 157 223 247 254 322
2019-10-13 08:30 1.12 312 527 (2010) 135 (2006) 221 141 152 157 223 247 254 322
2019-10-13 07:30 1.12 312 527 (2010) 135 (2006) 221 141 152 157 223 247 254 322
2019-10-13 06:30 1.12 312 527 (2010) 135 (2006) 221 141 152 157 223 247 254 322
2019-10-13 05:30 1.12 312 527 (2010) 135 (2006) 221 141 152 157 223 247 254 322
2019-10-13 04:30 1.12 312 527 (2010) 135 (2006) 221 141 152 157 223 247 254 322
2019-10-13 03:30 1.13 317 527 (2010) 135 (2006) 221 141 152 157 223 247 254 322
2019-10-13 02:30 1.13 317 527 (2010) 135 (2006) 221 141 152 157 223 247 254 322
2019-10-13 01:30 1.13 317 527 (2010) 135 (2006) 221 141 152 157 223 247 254 322
2019-10-13 00:30 1.13 317 527 (2010) 135 (2006) 221 141 152 157 223 247 254 322
2019-10-12 23:30 1.13 317 665 (2010) 138 (2006) 230 139 153 156 205 249 255 359
2019-10-12 22:30 1.14 321 665 (2010) 138 (2006) 230 139 153 156 205 249 255 359
2019-10-12 21:30 1.14 321 665 (2010) 138 (2006) 230 139 153 156 205 249 255 359
2019-10-12 20:30 1.14 321 665 (2010) 138 (2006) 230 139 153 156 205 249 255 359
2019-10-12 19:30 1.15 326 665 (2010) 138 (2006) 230 139 153 156 205 249 255 359
2019-10-12 18:30 1.15 326 665 (2010) 138 (2006) 230 139 153 156 205 249 255 359
2019-10-12 17:30 1.16 331 665 (2010) 138 (2006) 230 139 153 156 205 249 255 359
2019-10-12 16:30 1.16 331 665 (2010) 138 (2006) 230 139 153 156 205 249 255 359
2019-10-12 15:30 1.16 331 665 (2010) 138 (2006) 230 139 153 156 205 249 255 359
2019-10-12 14:30 1.17 336 665 (2010) 138 (2006) 230 139 153 156 205 249 255 359
2019-10-12 13:30 1.17 336 665 (2010) 138 (2006) 230 139 153 156 205 249 255 359
2019-10-12 12:30 1.17 336 665 (2010) 138 (2006) 230 139 153 156 205 249 255 359
2019-10-12 11:30 1.18 342 665 (2010) 138 (2006) 230 139 153 156 205 249 255 359
2019-10-12 10:30 1.18 342 665 (2010) 138 (2006) 230 139 153 156 205 249 255 359
2019-10-12 09:30 1.18 342 665 (2010) 138 (2006) 230 139 153 156 205 249 255 359
2019-10-12 08:30 1.19 347 665 (2010) 138 (2006) 230 139 153 156 205 249 255 359
2019-10-12 07:30 1.20 352 665 (2010) 138 (2006) 230 139 153 156 205 249 255 359
2019-10-12 06:30 1.20 352 665 (2010) 138 (2006) 230 139 153 156 205 249 255 359
2019-10-12 05:30 1.21 357 665 (2010) 138 (2006) 230 139 153 156 205 249 255 359
2019-10-12 04:30 1.22 362 665 (2010) 138 (2006) 230 139 153 156 205 249 255 359
2019-10-12 03:30 1.23 367 665 (2010) 138 (2006) 230 139 153 156 205 249 255 359
2019-10-12 02:30 1.24 373 665 (2010) 138 (2006) 230 139 153 156 205 249 255 359
2019-10-12 01:30 1.24 373 665 (2010) 138 (2006) 230 139 153 156 205 249 255 359
2019-10-12 00:30 1.26 383 665 (2010) 138 (2006) 230 139 153 156 205 249 255 359
2019-10-11 23:30 1.26 383 859 (2010) 139 (2006) 241 141 154 154 222 247 252 391
2019-10-11 22:30 1.28 394 859 (2010) 139 (2006) 241 141 154 154 222 247 252 391
2019-10-11 21:30 1.29 399 859 (2010) 139 (2006) 241 141 154 154 222 247 252 391
2019-10-11 20:30 1.30 405 859 (2010) 139 (2006) 241 141 154 154 222 247 252 391
2019-10-11 19:30 1.30 405 859 (2010) 139 (2006) 241 141 154 154 222 247 252 391
2019-10-11 18:30 1.31 410 859 (2010) 139 (2006) 241 141 154 154 222 247 252 391
2019-10-11 17:30 1.32 416 859 (2010) 139 (2006) 241 141 154 154 222 247 252 391
2019-10-11 16:30 1.33 421 859 (2010) 139 (2006) 241 141 154 154 222 247 252 391
2019-10-11 15:30 1.36 438 859 (2010) 139 (2006) 241 141 154 154 222 247 252 391
2019-10-11 14:30 1.38 449 859 (2010) 139 (2006) 241 141 154 154 222 247 252 391
2019-10-11 13:30 1.41 467 859 (2010) 139 (2006) 241 141 154 154 222 247 252 391
2019-10-11 12:30 1.44 484 859 (2010) 139 (2006) 241 141 154 154 222 247 252 391
2019-10-11 11:30 1.47 502 859 (2010) 139 (2006) 241 141 154 154 222 247 252 391
2019-10-11 10:30 1.49 514 859 (2010) 139 (2006) 241 141 154 154 222 247 252 391
2019-10-11 09:30 1.48 508 859 (2010) 139 (2006) 241 141 154 154 222 247 252 391
2019-10-11 08:30 1.44 484 859 (2010) 139 (2006) 241 141 154 154 222 247 252 391
2019-10-11 07:30 1.37 444 859 (2010) 139 (2006) 241 141 154 154 222 247 252 391
2019-10-11 06:30 1.32 416 859 (2010) 139 (2006) 241 141 154 154 222 247 252 391
2019-10-11 05:30 1.28 394 859 (2010) 139 (2006) 241 141 154 154 222 247 252 391
2019-10-11 04:30 1.25 378 859 (2010) 139 (2006) 241 141 154 154 222 247 252 391
2019-10-11 03:30 1.24 373 859 (2010) 139 (2006) 241 141 154 154 222 247 252 391
2019-10-11 02:30 1.20 352 859 (2010) 139 (2006) 241 141 154 154 222 247 252 391
2019-10-11 01:30 1.10 302 859 (2010) 139 (2006) 241 141 154 154 222 247 252 391
2019-10-11 00:30 1.09 297 859 (2010) 139 (2006) 241 141 154 154 222 247 252 391
2019-10-10 23:30 1.06 283 1080 (2010) 135 (2002) 255 143 154 157 228 249 254 436
2019-10-10 22:30 1.06 283 1080 (2010) 135 (2002) 255 143 154 157 228 249 254 436
2019-10-10 21:30 1.06 283 1080 (2010) 135 (2002) 255 143 154 157 228 249 254 436
2019-10-10 20:30 1.06 283 1080 (2010) 135 (2002) 255 143 154 157 228 249 254 436
2019-10-10 19:30 1.05 278 1080 (2010) 135 (2002) 255 143 154 157 228 249 254 436
2019-10-10 18:30 1.05 278 1080 (2010) 135 (2002) 255 143 154 157 228 249 254 436
2019-10-10 17:30 1.04 274 1080 (2010) 135 (2002) 255 143 154 157 228 249 254 436
2019-10-10 16:30 1.04 274 1080 (2010) 135 (2002) 255 143 154 157 228 249 254 436
2019-10-10 15:30 1.04 274 1080 (2010) 135 (2002) 255 143 154 157 228 249 254 436
2019-10-10 14:30 1.04 274 1080 (2010) 135 (2002) 255 143 154 157 228 249 254 436
2019-10-10 13:30 1.04 274 1080 (2010) 135 (2002) 255 143 154 157 228 249 254 436
2019-10-10 12:30 1.04 274 1080 (2010) 135 (2002) 255 143 154 157 228 249 254 436
2019-10-10 11:30 1.04 255 1080 (2010) 135 (2002) 255 143 154 157 228 249 254 436
2019-10-10 10:30 1.04 255 1080 (2010) 135 (2002) 255 143 154 157 228 249 254 436
2019-10-10 09:30 1.04 255 1080 (2010) 135 (2002) 255 143 154 157 228 249 254 436
2019-10-10 08:30 1.04 255 1080 (2010) 135 (2002) 255 143 154 157 228 249 254 436
2019-10-10 07:30 1.04 255 1080 (2010) 135 (2002) 255 143 154 157 228 249 254 436
2019-10-10 06:30 1.04 255 1080 (2010) 135 (2002) 255 143 154 157 228 249 254 436
2019-10-10 05:30 1.04 255 1080 (2010) 135 (2002) 255 143 154 157 228 249 254 436
2019-10-10 04:30 1.03 251 1080 (2010) 135 (2002) 255 143 154 157 228 249 254 436
2019-10-10 03:30 1.03 251 1080 (2010) 135 (2002) 255 143 154 157 228 249 254 436
2019-10-10 02:30 1.03 251 1080 (2010) 135 (2002) 255 143 154 157 228 249 254 436
2019-10-10 01:30 1.03 251 1080 (2010) 135 (2002) 255 143 154 157 228 249 254 436
2019-10-10 00:30 1.03 251 1080 (2010) 135 (2002) 255 143 154 157 228 249 254 436
2019-10-09 22:30 1.04 255 887 (2010) 131 (2002) 241 142 155 158 201 249 256 400
2019-10-09 21:30 1.03 251 887 (2010) 131 (2002) 241 142 155 158 201 249 256 400
2019-10-09 20:30 1.03 251 887 (2010) 131 (2002) 241 142 155 158 201 249 256 400
2019-10-09 19:30 1.03 251 887 (2010) 131 (2002) 241 142 155 158 201 249 256 400
2019-10-09 18:30 1.03 251 887 (2010) 131 (2002) 241 142 155 158 201 249 256 400
2019-10-09 17:30 1.04 255 887 (2010) 131 (2002) 241 142 155 158 201 249 256 400
2019-10-09 16:30 1.04 255 887 (2010) 131 (2002) 241 142 155 158 201 249 256 400
2019-10-09 15:30 1.04 255 887 (2010) 131 (2002) 241 142 155 158 201 249 256 400
2019-10-09 14:30 1.04 255 887 (2010) 131 (2002) 241 142 155 158 201 249 256 400
2019-10-09 13:30 1.04 255 887 (2010) 131 (2002) 241 142 155 158 201 249 256 400
2019-10-09 12:30 1.04 255 887 (2010) 131 (2002) 241 142 155 158 201 249 256 400
2019-10-09 11:30 1.03 251 887 (2010) 131 (2002) 241 142 155 158 201 249 256 400
2019-10-09 10:30 1.03 251 887 (2010) 131 (2002) 241 142 155 158 201 249 256 400
2019-10-09 09:30 1.03 251 887 (2010) 131 (2002) 241 142 155 158 201 249 256 400
2019-10-09 08:30 1.03 251 887 (2010) 131 (2002) 241 142 155 158 201 249 256 400
2019-10-09 07:30 1.03 251 887 (2010) 131 (2002) 241 142 155 158 201 249 256 400
2019-10-09 06:30 1.03 251 887 (2010) 131 (2002) 241 142 155 158 201 249 256 400
2019-10-09 05:30 1.03 251 887 (2010) 131 (2002) 241 142 155 158 201 249 256 400
2019-10-09 04:30 1.03 251 887 (2010) 131 (2002) 241 142 155 158 201 249 256 400
2019-10-09 03:30 1.03 251 887 (2010) 131 (2002) 241 142 155 158 201 249 256 400
2019-10-09 02:30 1.03 251 887 (2010) 131 (2002) 241 142 155 158 201 249 256 400
2019-10-09 01:30 1.04 255 887 (2010) 131 (2002) 241 142 155 158 201 249 256 400
2019-10-09 00:30 1.03 251 887 (2010) 131 (2002) 241 142 155 158 201 249 256 400
2019-10-08 23:30 1.03 251 310 (2010) 130 (2002) 208 142 151 154 200 252 266 286
2019-10-08 22:30 1.04 255 310 (2010) 130 (2002) 208 142 151 154 200 252 266 286
2019-10-08 21:30 1.04 255 310 (2010) 130 (2002) 208 142 151 154 200 252 266 286
2019-10-08 20:30 1.04 255 310 (2010) 130 (2002) 208 142 151 154 200 252 266 286
2019-10-08 19:30 1.04 255 310 (2010) 130 (2002) 208 142 151 154 200 252 266 286
2019-10-08 18:30 1.04 255 310 (2010) 130 (2002) 208 142 151 154 200 252 266 286
2019-10-08 17:30 1.04 255 310 (2010) 130 (2002) 208 142 151 154 200 252 266 286
2019-10-08 16:30 1.04 255 310 (2010) 130 (2002) 208 142 151 154 200 252 266 286
2019-10-08 15:30 1.04 255 310 (2010) 130 (2002) 208 142 151 154 200 252 266 286
2019-10-08 14:30 1.04 255 310 (2010) 130 (2002) 208 142 151 154 200 252 266 286
2019-10-08 13:30 1.04 255 310 (2010) 130 (2002) 208 142 151 154 200 252 266 286
2019-10-08 12:30 1.04 255 310 (2010) 130 (2002) 208 142 151 154 200 252 266 286
2019-10-08 11:30 1.04 255 310 (2010) 130 (2002) 208 142 151 154 200 252 266 286
2019-10-08 10:30 1.04 255 310 (2010) 130 (2002) 208 142 151 154 200 252 266 286
2019-10-08 09:30 1.04 255 310 (2010) 130 (2002) 208 142 151 154 200 252 266 286
2019-10-08 08:30 1.04 255 310 (2010) 130 (2002) 208 142 151 154 200 252 266 286
2019-10-08 07:30 1.04 255 310 (2010) 130 (2002) 208 142 151 154 200 252 266 286
2019-10-08 06:30 1.04 255 310 (2010) 130 (2002) 208 142 151 154 200 252 266 286
2019-10-08 05:30 1.04 255 310 (2010) 130 (2002) 208 142 151 154 200 252 266 286
2019-10-08 04:30 1.04 255 310 (2010) 130 (2002) 208 142 151 154 200 252 266 286
2019-10-08 03:30 1.04 255 310 (2010) 130 (2002) 208 142 151 154 200 252 266 286
2019-10-08 02:30 1.04 255 310 (2010) 130 (2002) 208 142 151 154 200 252 266 286
2019-10-08 01:30 1.04 255 310 (2010) 130 (2002) 208 142 151 154 200 252 266 286
2019-10-08 00:30 1.04 255 310 (2010) 130 (2002) 208 142 151 154 200 252 266 286
2019-10-07 23:30 1.05 260 312 (2010) 130 (2002) 209 143 152 157 202 256 271 292
2019-10-07 22:30 1.05 260 312 (2010) 130 (2002) 209 143 152 157 202 256 271 292
2019-10-07 21:30 1.05 260 312 (2010) 130 (2002) 209 143 152 157 202 256 271 292
2019-10-07 20:30 1.05 260 312 (2010) 130 (2002) 209 143 152 157 202 256 271 292
2019-10-07 19:30 1.05 260 312 (2010) 130 (2002) 209 143 152 157 202 256 271 292
2019-10-07 18:30 1.05 260 312 (2010) 130 (2002) 209 143 152 157 202 256 271 292
2019-10-07 17:30 1.05 260 312 (2010) 130 (2002) 209 143 152 157 202 256 271 292
2019-10-07 16:30 1.06 264 312 (2010) 130 (2002) 209 143 152 157 202 256 271 292
2019-10-07 15:30 1.06 264 312 (2010) 130 (2002) 209 143 152 157 202 256 271 292
2019-10-07 14:30 1.06 264 312 (2010) 130 (2002) 209 143 152 157 202 256 271 292
2019-10-07 13:30 1.06 264 312 (2010) 130 (2002) 209 143 152 157 202 256 271 292
2019-10-07 12:30 1.06 264 312 (2010) 130 (2002) 209 143 152 157 202 256 271 292
2019-10-07 11:30 1.06 264 312 (2010) 130 (2002) 209 143 152 157 202 256 271 292
2019-10-07 10:30 1.06 264 312 (2010) 130 (2002) 209 143 152 157 202 256 271 292
2019-10-07 09:30 1.07 269 312 (2010) 130 (2002) 209 143 152 157 202 256 271 292
2019-10-07 08:30 1.07 269 312 (2010) 130 (2002) 209 143 152 157 202 256 271 292
2019-10-07 07:30 1.07 269 312 (2010) 130 (2002) 209 143 152 157 202 256 271 292
2019-10-07 06:30 1.08 274 312 (2010) 130 (2002) 209 143 152 157 202 256 271 292
2019-10-07 05:30 1.08 274 312 (2010) 130 (2002) 209 143 152 157 202 256 271 292
2019-10-07 04:30 1.08 274 312 (2010) 130 (2002) 209 143 152 157 202 256 271 292
2019-10-07 03:30 1.08 274 312 (2010) 130 (2002) 209 143 152 157 202 256 271 292
2019-10-07 02:30 1.09 278 312 (2010) 130 (2002) 209 143 152 157 202 256 271 292
2019-10-07 01:30 1.09 278 312 (2010) 130 (2002) 209 143 152 157 202 256 271 292
2019-10-07 00:30 1.09 278 312 (2010) 130 (2002) 209 143 152 157 202 256 271 292
2019-10-06 23:30 1.09 278 318 (2010) 134 (2002) 209 146 154 158 205 256 267 295
2019-10-06 22:30 1.09 278 318 (2010) 134 (2002) 209 146 154 158 205 256 267 295
2019-10-06 21:30 1.09 278 318 (2010) 134 (2002) 209 146 154 158 205 256 267 295
2019-10-06 20:30 1.09 278 318 (2010) 134 (2002) 209 146 154 158 205 256 267 295
2019-10-06 19:30 1.10 283 318 (2010) 134 (2002) 209 146 154 158 205 256 267 295
2019-10-06 18:30 1.10 283 318 (2010) 134 (2002) 209 146 154 158 205 256 267 295
2019-10-06 17:30 1.11 288 318 (2010) 134 (2002) 209 146 154 158 205 256 267 295
2019-10-06 16:30 1.10 283 318 (2010) 134 (2002) 209 146 154 158 205 256 267 295
2019-10-06 15:30 1.10 283 318 (2010) 134 (2002) 209 146 154 158 205 256 267 295
2019-10-06 14:30 1.10 283 318 (2010) 134 (2002) 209 146 154 158 205 256 267 295
2019-10-06 13:30 1.11 288 318 (2010) 134 (2002) 209 146 154 158 205 256 267 295
2019-10-06 12:30 1.11 288 318 (2010) 134 (2002) 209 146 154 158 205 256 267 295
2019-10-06 11:30 1.11 288 318 (2010) 134 (2002) 209 146 154 158 205 256 267 295
2019-10-06 10:30 1.10 283 318 (2010) 134 (2002) 209 146 154 158 205 256 267 295
2019-10-06 09:30 1.10 283 318 (2010) 134 (2002) 209 146 154 158 205 256 267 295
2019-10-06 08:30 1.11 288 318 (2010) 134 (2002) 209 146 154 158 205 256 267 295
2019-10-06 07:30 1.11 288 318 (2010) 134 (2002) 209 146 154 158 205 256 267 295
2019-10-06 06:30 1.11 288 318 (2010) 134 (2002) 209 146 154 158 205 256 267 295
2019-10-06 05:30 1.10 283 318 (2010) 134 (2002) 209 146 154 158 205 256 267 295
2019-10-06 04:30 1.09 278 318 (2010) 134 (2002) 209 146 154 158 205 256 267 295
2019-10-06 03:30 1.06 264 318 (2010) 134 (2002) 209 146 154 158 205 256 267 295
2019-10-06 02:30 1.05 260 318 (2010) 134 (2002) 209 146 154 158 205 256 267 295
2019-10-06 01:30 1.05 260 318 (2010) 134 (2002) 209 146 154 158 205 256 267 295
2019-10-06 00:30 1.05 260 318 (2010) 134 (2002) 209 146 154 158 205 256 267 295

A total of 186 rows are displayed for years 2002 through 2018.

Trips for Current River (Missouri), Akers (07064533)

DateStartEndDistanceConditionDischargeHeightFishingDetails
Click for details2019-06-26 Akers Gladden Creek Total trip distance: 18.2 miles0.3 Good 708 1.83 None NoneNone Bartlett, Renee
Edmond, Brian
Van Someren, Tom
Bartlett, Renee; Edmond, Brian; Van Someren, Tom
We arrived at Akers with the intention of camping there and shuttling and floating the next day. We met up with someone at the canoe rental who agreed to shuttle that night so we could get started. It was nearly dark when we pushed off so we stopped at the first available gravel bar to camp. Raccoons raided one of our dry bags for food that night, ripping a hole in the side and eating all of our English muffins and some other miscellaneous things.We arrived at Akers with the intention of camping there and shuttling and floating the next day. We met up with someone at the canoe rental who agreed to shuttle that night so we could get started. It was nearly dark when we pushed off so we stopped at the first available gravel bar to camp. Raccoons raided one of our dry bags for food that night, ripping a hole in the side and eating all of our English muffins and some other miscellaneous things. USGS Gauge Data:
Akers (07064533)
Discharge: 708
Height: 1.83
<b>USGS Gauge Data:</b></br />Akers (07064533)<br />Discharge: 708<br />Height: 1.83
Source: EdmondSource: Edmond
Click for details2019-06-27 Gladden Creek Slick Shoal Hollow (B) Total trip distance: 18.2 miles13.7 Good 614 1.69 Poor SMBSMB Bartlett, Renee
Edmond, Brian
Van Someren, Tom
Bartlett, Renee; Edmond, Brian; Van Someren, Tom
This was a perfect day to be on the river. We didn't see anyone else until nearly noon. We made great progress during the day as the current was moving steadily. Fishing was nearly non-existent. We did visit the main features including Cave Spring, Rockhouse Cave, Pulltite, and the smaller springs nearby.This was a perfect day to be on the river. We didn't see anyone else until nearly noon. We made great progress during the day as the current was moving steadily. Fishing was nearly non-existent. We did visit the main features including Cave Spring, Rockhouse Cave, Pulltite, and the smaller springs nearby. USGS Gauge Data:
Akers (07064533)
Discharge: 614
Height: 1.69
<b>USGS Gauge Data:</b></br />Akers (07064533)<br />Discharge: 614<br />Height: 1.69
Source: EdmondSource: Edmond
Click for details2019-08-28 Cedargrove Big Creek Total trip distance: 17.2 miles0.9 Good 569 1.62 None NoneNone Bartlett, Renee
Bartlett, Stephanie
Edmond, Brian
Van Someren, Tom
Bartlett, Renee; Bartlett, Stephanie; Edmond, Brian; Van Someren, Tom
We arrived at Cedargrove a little before 1600 hours and unloaded our boats and equipment. Renee stayed with the boats while we shuttled to Pulltite. Tom and Renee pushed off around 1730 hours to find a camp site. Stephanie and I pushed off around 1830 hours. Dinner was a sausage, pepper, and rice casserole from Renee along with mango / avocado salsa and chocolate for dessert. The night was crystal clear and we saw a bright shooting star while sitting around the campfire. We slept outside and the dew was heavy, making everything very wet. Fortunately, the sun was bright and warm first thing in the morning, drying everything quickly. The gear in the boat was heavy but sufficient for an overnight trip. We did have some challenges sleeping together with two separate sleeping pads. We'll try a single air mattress next time.We arrived at Cedargrove a little before 1600 hours and unloaded our boats and equipment. Renee stayed with the boats while we shuttled to Pulltite. Tom and Renee pushed off around 1730 hours to find a camp site. Stephanie and I pushed off around 1830 hours. Dinner was a sausage, pepper, and rice casserole from Renee along with mango / avocado salsa and chocolate for dessert. The night was crystal clear and we saw a bright shooting star while sitting around the campfire. We slept outside and the dew was heavy, making everything very wet. Fortunately, the sun was bright and warm first thing in the morning, drying everything quickly. The gear in the boat was heavy but sufficient for an overnight trip. We did have some challenges sleeping together with two separate sleeping pads. We'll try a single air mattress next time. USGS Gauge Data:
Akers (07064533)
Discharge: 569
Height: 1.62
<b>USGS Gauge Data:</b></br />Akers (07064533)<br />Discharge: 569<br />Height: 1.62
Source: EdmondSource: Edmond
Click for details2019-06-28 Slick Shoal Hollow (B) Round Spring Total trip distance: 18.2 miles4.2 Good 557 1.60 None NoneNone Bartlett, Renee
Edmond, Brian
Van Someren, Tom
Bartlett, Renee; Edmond, Brian; Van Someren, Tom
We broke camp late and spent a great deal of time lounging on gravel bars, including a delightful tea time setup at the mouth of Sinking Creek. Here, water in the creek was warmer than the river water which was an interesting flip about the usual nature of things. This was a fantastic multi-day trip on the Current and the first overnight river trip Tom and I attempted (although we've done several where we car camp and then paddle the next day).We broke camp late and spent a great deal of time lounging on gravel bars, including a delightful tea time setup at the mouth of Sinking Creek. Here, water in the creek was warmer than the river water which was an interesting flip about the usual nature of things. This was a fantastic multi-day trip on the Current and the first overnight river trip Tom and I attempted (although we've done several where we car camp and then paddle the next day). USGS Gauge Data:
Akers (07064533)
Discharge: 557
Height: 1.60
<b>USGS Gauge Data:</b></br />Akers (07064533)<br />Discharge: 557<br />Height: 1.60
Source: EdmondSource: Edmond
Click for details2019-08-29 Big Creek Cave Spring Total trip distance: 17.2 miles12.0 Good 490 1.49 Poor SMBSMB Bartlett, Renee
Bartlett, Stephanie
Edmond, Brian
Van Someren, Tom
Bartlett, Renee; Bartlett, Stephanie; Edmond, Brian; Van Someren, Tom
We broke camp around 1130 hours and took our time paddling downstream. We stopped at Welch Spring and Medlock Cave along the way for photos. We lost track of Tom and Renee just downstream from Akers and paddled through the early evening to find them setup at Cave Spring. This night, we setup our tents to ward off the dew. The night and next morning were somewhat overcast and cool. Dinner tonight was burgers, corn on the cob, potato salad, beans, avocado / mango salsa, among other things.We broke camp around 1130 hours and took our time paddling downstream. We stopped at Welch Spring and Medlock Cave along the way for photos. We lost track of Tom and Renee just downstream from Akers and paddled through the early evening to find them setup at Cave Spring. This night, we setup our tents to ward off the dew. The night and next morning were somewhat overcast and cool. Dinner tonight was burgers, corn on the cob, potato salad, beans, avocado / mango salsa, among other things. USGS Gauge Data:
Akers (07064533)
Discharge: 490
Height: 1.49
<b>USGS Gauge Data:</b></br />Akers (07064533)<br />Discharge: 490<br />Height: 1.49
Source: EdmondSource: Edmond
Click for details2019-08-30 Cave Spring Pulltite Total trip distance: 17.2 miles4.3 Good 427 1.38 Poor NoneNone Bartlett, Renee
Bartlett, Stephanie
Edmond, Brian
Van Someren, Tom
Bartlett, Renee; Bartlett, Stephanie; Edmond, Brian; Van Someren, Tom
We broke camp around 1230 hours after touring Cave Spring and getting photos. Overall, the loaded canoe was tricky to maneuver on the upper sections of the river where obstacles could be a little more challenging than further down. We stopped at Rockhouse Cave for photos. We arrived at Pulltite around 1700 hours after taking our time paddling downstream and stopping for a long lunch. Despite travelling on a week day, we were with other people much of the time.We broke camp around 1230 hours after touring Cave Spring and getting photos. Overall, the loaded canoe was tricky to maneuver on the upper sections of the river where obstacles could be a little more challenging than further down. We stopped at Rockhouse Cave for photos. We arrived at Pulltite around 1700 hours after taking our time paddling downstream and stopping for a long lunch. Despite travelling on a week day, we were with other people much of the time. USGS Gauge Data:
Akers (07064533)
Discharge: 427
Height: 1.38
<b>USGS Gauge Data:</b></br />Akers (07064533)<br />Discharge: 427<br />Height: 1.38
Source: EdmondSource: Edmond
Click for details2012-11-12 Jerktail Landing (A) Two Rivers Total trip distance: 17.3 miles11.1 Good 303 1.28 Poor SMBSMB Fillmore, Brian
Fillmore, Rebecca
Javorsek, Rachie
Fillmore, Brian; Fillmore, Rebecca; Javorsek, Rachie
No notes for this trip<i>No notes for this trip</i> USGS Gauge Data:
Akers (07064533)
Discharge: 303
Height: 1.28
<b>USGS Gauge Data:</b></br />Akers (07064533)<br />Discharge: 303<br />Height: 1.28
Source: FillmoreSource: Fillmore
Click for details2016-08-12 Pulltite Round Spring Total trip distance: 9.0 miles9.0 Good 273 1.20 Poor NoneNone Edmond, Alex
Edmond, Brian
Edmond, Joseph
Edmond, Julian
Edmond, Alex; Edmond, Brian; Edmond, Joseph; Edmond, Julian
This was a great trip on the river. There were more people than I expected, probably due to Fri (as opposed to Mon or Tue as we've done before).This was a great trip on the river. There were more people than I expected, probably due to Fri (as opposed to Mon or Tue as we've done before). USGS Gauge Data:
Akers (07064533)
Discharge: 273
Height: 1.20
<b>USGS Gauge Data:</b></br />Akers (07064533)<br />Discharge: 273<br />Height: 1.20
Source: EdmondSource: Edmond
Click for details2002-08-17 Akers Pulltite Total trip distance: 9.5 miles9.5 Good 262 None NoneNone Ballard, Christina
Ballard, Kevin
Ballard, Paige
Ballard, Webb
Edmond, Brian
Edmond, Jim
Edmond, Shirlee
Houseworth, Bart
Houseworth, Julie
Houseworth, Owen
Ince, Brianne
Ince, Jerri Ann
Ballard, Christina; Ballard, Kevin; Ballard, Paige; Ballard, Webb; Edmond, Brian; Edmond, Jim; Edmond, Shirlee; Houseworth, Bart; Houseworth, Julie; Houseworth, Owen; Ince, Brianne; Ince, Jerri Ann
No notes for this trip<i>No notes for this trip</i> USGS Gauge Data:
Akers (07064533)
Discharge: 262
Height:
<b>USGS Gauge Data:</b></br />Akers (07064533)<br />Discharge: 262<br />Height:
Source: EdmondSource: Edmond
Click for details2003-06-21 Akers Pulltite Total trip distance: 9.5 miles9.5 Good 252 None NoneNone Ballard, Christina
Ballard, Kevin
Ballard, Paige
Ballard, Webb
Edmond, Alex
Edmond, Brian
Edmond, Joseph
Ince, Brianne
Ince, Jerri Ann
Ince, Seth
Powell, Heather
Ballard, Christina; Ballard, Kevin; Ballard, Paige; Ballard, Webb; Edmond, Alex; Edmond, Brian; Edmond, Joseph; Ince, Brianne; Ince, Jerri Ann; Ince, Seth; Powell, Heather
No notes for this trip<i>No notes for this trip</i> USGS Gauge Data:
Akers (07064533)
Discharge: 252
Height:
<b>USGS Gauge Data:</b></br />Akers (07064533)<br />Discharge: 252<br />Height:
Source: EdmondSource: Edmond
Click for details2017-02-11 Akers Pulltite Total trip distance: 11.9 miles9.5 Good 213 0.98 Fair RTRT Edmond, Brian
Grindstaff, Brian
Larsen, Chris
Larsen, Lisa
Van Someren, Tom
Edmond, Brian; Grindstaff, Brian; Larsen, Chris; Larsen, Lisa; Van Someren, Tom
Most of this stretch flowed pretty well. We hit the bottom on several riffles and some runs were trickier than they would have been in a little higher water.Most of this stretch flowed pretty well. We hit the bottom on several riffles and some runs were trickier than they would have been in a little higher water. USGS Gauge Data:
Akers (07064533)
Discharge: 213
Height: 0.98
<b>USGS Gauge Data:</b></br />Akers (07064533)<br />Discharge: 213<br />Height: 0.98
Source: EdmondSource: Edmond
Click for details2017-02-11 Welch Akers Total trip distance: 11.9 miles2.4 Good 213 0.98 Poor SMBSMB Edmond, Brian
Van Someren, Tom
Edmond, Brian; Van Someren, Tom
We put in at the landing, a small road down to the river pretty far south of the spring and hospital ruins. This section was nice and flowing quickly. We could have easily done this stretch in an hour. There were a few places where we dragged on the bottom a bit.We put in at the landing, a small road down to the river pretty far south of the spring and hospital ruins. This section was nice and flowing quickly. We could have easily done this stretch in an hour. There were a few places where we dragged on the bottom a bit. USGS Gauge Data:
Akers (07064533)
Discharge: 213
Height: 0.98
<b>USGS Gauge Data:</b></br />Akers (07064533)<br />Discharge: 213<br />Height: 0.98
Source: EdmondSource: Edmond
Click for details2014-08-11 Powder Mill Spring Hollow (A) Total trip distance: 11.1 miles6.9 Good 204 1.04 Poor SMBSMB Edmond, Alex
Edmond, Brian
Edmond, Joseph
Edmond, Alex; Edmond, Brian; Edmond, Joseph
Excellent river levels and current. Only eight other boats on the river all day, including two bass boats with motors, three kayaks, and three canoes. Powder Mill to Waymeyer are not served by daily canoe rentals and might be ideal for a weekend float.Excellent river levels and current. Only eight other boats on the river all day, including two bass boats with motors, three kayaks, and three canoes. Powder Mill to Waymeyer are not served by daily canoe rentals and might be ideal for a weekend float. USGS Gauge Data:
Akers (07064533)
Discharge: 204
Height: 1.04
<b>USGS Gauge Data:</b></br />Akers (07064533)<br />Discharge: 204<br />Height: 1.04
Source: EdmondSource: Edmond
Click for details2014-08-12 Spring Hollow (A) Beal Total trip distance: 11.1 miles4.2 Good 187 0.98 Poor SMBSMB Edmond, Alex
Edmond, Brian
Edmond, Joseph
Edmond, Alex; Edmond, Brian; Edmond, Joseph
Quiet and lonely stretch in the early morning. Only a few other boats were seen.Quiet and lonely stretch in the early morning. Only a few other boats were seen. USGS Gauge Data:
Akers (07064533)
Discharge: 187
Height: 0.98
<b>USGS Gauge Data:</b></br />Akers (07064533)<br />Discharge: 187<br />Height: 0.98
Source: EdmondSource: Edmond
Click for details2007-08-11 Akers Pulltite Total trip distance: 9.5 miles9.5 Good 181 None NoneNone Bowe, Michelle
Edmond, Alex
Edmond, Brian
Edmond, Joseph
Ince, Brianne
Ince, Laura
Storts, Amy Jo
Storts, Kaleb
Storts, Kylie Jo
Storts, Todd
Bowe, Michelle; Edmond, Alex; Edmond, Brian; Edmond, Joseph; Ince, Brianne; Ince, Laura; Storts, Amy Jo; Storts, Kaleb; Storts, Kylie Jo; Storts, Todd
No notes for this trip<i>No notes for this trip</i> USGS Gauge Data:
Akers (07064533)
Discharge: 181
Height:
<b>USGS Gauge Data:</b></br />Akers (07064533)<br />Discharge: 181<br />Height:
Source: EdmondSource: Edmond
Click for details2012-11-11 Round Spring Jerktail Landing (A) Total trip distance: 17.3 miles6.2 Good 178 0.99 Fair SMBSMB Fillmore, Brian
Fillmore, Rebecca
Javorsek, Rachie
Fillmore, Brian; Fillmore, Rebecca; Javorsek, Rachie
No notes for this trip<i>No notes for this trip</i> USGS Gauge Data:
Akers (07064533)
Discharge: 178
Height: 0.99
<b>USGS Gauge Data:</b></br />Akers (07064533)<br />Discharge: 178<br />Height: 0.99
Source: FillmoreSource: Fillmore
Click for details2012-10-09 Welch Spring (B) Akers (B) Total trip distance: 26.2 miles5.0 Good 161 0.96 Poor RBTRBT Fillmore, Brian
Fillmore, Rebecca
Fillmore, Brian; Fillmore, Rebecca
No notes for this trip<i>No notes for this trip</i> USGS Gauge Data:
Akers (07064533)
Discharge: 161
Height: 0.96
<b>USGS Gauge Data:</b></br />Akers (07064533)<br />Discharge: 161<br />Height: 0.96
Source: FillmoreSource: Fillmore
Click for details2012-10-11 Pulltite (B) Round Spring Total trip distance: 26.2 miles8.2 Good 157 0.96 Great SMB
KSB
SMB, KSB
Fillmore, Brian
Fillmore, Rebecca
Javorsek, Rachie
Fillmore, Brian; Fillmore, Rebecca; Javorsek, Rachie
No notes for this trip<i>No notes for this trip</i> USGS Gauge Data:
Akers (07064533)
Discharge: 157
Height: 0.96
<b>USGS Gauge Data:</b></br />Akers (07064533)<br />Discharge: 157<br />Height: 0.96
Source: FillmoreSource: Fillmore
Click for details2012-10-10 Akers (B) Pulltite (B) Total trip distance: 26.2 miles8.0 Good 157 0.97 Poor CPCP Fillmore, Brian
Fillmore, Rebecca
Fillmore, Brian; Fillmore, Rebecca
No notes for this trip<i>No notes for this trip</i> USGS Gauge Data:
Akers (07064533)
Discharge: 157
Height: 0.97
<b>USGS Gauge Data:</b></br />Akers (07064533)<br />Discharge: 157<br />Height: 0.97
Source: FillmoreSource: Fillmore
Click for details2012-10-08 Cedargrove Welch Spring (B) Total trip distance: 26.2 miles5.0 Good 157 0.96 Poor SMB
RBT
SMB, RBT
Fillmore, Brian
Fillmore, Rebecca
Fillmore, Brian; Fillmore, Rebecca
No notes for this trip<i>No notes for this trip</i> USGS Gauge Data:
Akers (07064533)
Discharge: 157
Height: 0.96
<b>USGS Gauge Data:</b></br />Akers (07064533)<br />Discharge: 157<br />Height: 0.96
Source: FillmoreSource: Fillmore

A total of 20 rows are displayed.

Trip Summary for Current River (Missouri), Akers (07064533)

Miles139.4
Trips10
People32
Dates19
Years8
Months5
Rows20
Sources2

Condition Descriptions

Fishing Conditions

Fish Species

Notes

Classic Trip List

The classic River Trips application is still available for use. It is updated with the new system using a data retrofit. It is no longer maintained. The original River Trips application is no longer updated (as of 1 Dec 2016) but can be checked for errors or for the condition of the data before it was converted to the new system.